createdAt,value
2023-03-01T00:01:07.310Z,-1.87
2023-03-01T00:03:33.757Z,-2.07
2023-03-01T00:05:59.986Z,-1.85
2023-03-01T00:08:26.326Z,-1.84
2023-03-01T00:11:05.534Z,-1.80
2023-03-01T00:13:31.788Z,-1.69
2023-03-01T00:15:58.005Z,-1.62
2023-03-01T00:18:24.210Z,-1.56
2023-03-01T00:20:51.184Z,-1.77
2023-03-01T00:23:17.390Z,-1.78
2023-03-01T00:25:43.783Z,-1.91
2023-03-01T00:28:09.995Z,-2.11
2023-03-01T00:30:36.252Z,-2.14
2023-03-01T00:33:02.483Z,-1.68
2023-03-01T00:35:28.797Z,-1.79
2023-03-01T00:37:55.019Z,-1.71
2023-03-01T00:40:21.251Z,-1.82
2023-03-01T00:42:47.461Z,-1.84
2023-03-01T00:45:13.671Z,-1.75
2023-03-01T00:47:39.873Z,-1.85
2023-03-01T00:50:06.336Z,-1.57
2023-03-01T00:52:32.598Z,-1.51
2023-03-01T00:54:58.801Z,-1.44
2023-03-01T00:57:25.007Z,-1.46
2023-03-01T00:59:51.219Z,-1.49
2023-03-01T01:02:17.481Z,-1.69
2023-03-01T01:04:43.721Z,-1.80
2023-03-01T01:07:09.922Z,-1.80
2023-03-01T01:09:36.135Z,-1.94
2023-03-01T01:12:02.460Z,-1.81
2023-03-01T01:14:28.682Z,-1.80
2023-03-01T01:16:54.888Z,-1.89
2023-03-01T01:19:21.279Z,-2.00
2023-03-01T01:21:47.576Z,-2.05
2023-03-01T01:24:13.794Z,-2.06
2023-03-01T01:26:40.019Z,-2.14
2023-03-01T01:29:06.251Z,-1.84
2023-03-01T01:31:32.601Z,-1.73
2023-03-01T01:33:59.217Z,-1.59
2023-03-01T01:36:25.442Z,-1.53
2023-03-01T01:38:51.662Z,-1.48
2023-03-01T01:41:17.897Z,-1.70
2023-03-01T01:43:45.527Z,-2.02
2023-03-01T01:46:26.858Z,-2.01
2023-03-01T01:49:16.490Z,-2.07
2023-03-01T01:51:43.080Z,-1.94
2023-03-01T01:54:13.390Z,-1.77
2023-03-01T01:56:39.667Z,-1.74
2023-03-01T01:59:05.880Z,-1.64
2023-03-01T02:01:32.115Z,-1.61
2023-03-01T02:03:58.326Z,-1.63
2023-03-01T02:06:29.352Z,-1.66
2023-03-01T02:08:56.103Z,-1.61
2023-03-01T02:11:22.322Z,-1.55
2023-03-01T02:13:48.621Z,-1.55
2023-03-01T02:16:15.224Z,-1.52
2023-03-01T02:18:41.440Z,-1.47
2023-03-01T02:21:30.423Z,-1.67
2023-03-01T02:23:56.666Z,-1.59
2023-03-01T02:26:29.255Z,-1.57
2023-03-01T02:28:55.697Z,-1.65
2023-03-01T02:31:22.296Z,-1.57
2023-03-01T02:33:48.540Z,-1.62
2023-03-01T02:36:16.091Z,-1.61
2023-03-01T02:38:42.468Z,-1.62
2023-03-01T02:41:08.834Z,-1.80
2023-03-01T02:43:35.036Z,-1.68
2023-03-01T02:46:08.556Z,-1.63
2023-03-01T02:48:41.733Z,-1.56
2023-03-01T02:51:07.901Z,-1.63
2023-03-01T02:53:42.139Z,-1.66
2023-03-01T02:56:08.494Z,-1.67
2023-03-01T02:58:34.702Z,-1.79
2023-03-01T03:01:00.964Z,-1.84
2023-03-01T03:03:27.216Z,-1.92
2023-03-01T03:05:53.457Z,-1.87
2023-03-01T03:08:19.673Z,-1.99
2023-03-01T03:10:45.897Z,-2.15
2023-03-01T03:13:15.255Z,-2.04
2023-03-01T03:15:41.748Z,-1.82
2023-03-01T03:18:08.879Z,-1.75
2023-03-01T03:20:35.132Z,-1.64
2023-03-01T03:23:01.365Z,-1.66
2023-03-01T03:25:27.913Z,-1.72
2023-03-01T03:27:54.133Z,-1.65
2023-03-01T03:30:20.344Z,-1.68
2023-03-01T03:32:47.072Z,-1.65
2023-03-01T03:35:13.292Z,-1.75
2023-03-01T03:37:39.690Z,-1.78
2023-03-01T03:40:06.112Z,-1.97
2023-03-01T03:42:32.334Z,-2.01
2023-03-01T03:44:58.548Z,-1.92
2023-03-01T03:47:24.758Z,-1.93
2023-03-01T03:49:50.965Z,-2.19
2023-03-01T03:52:17.184Z,-1.99
2023-03-01T03:54:43.388Z,-2.04
2023-03-01T03:57:09.591Z,-2.27
2023-03-01T03:59:35.800Z,-2.21
2023-03-01T04:02:02.069Z,-2.09
2023-03-01T04:04:28.291Z,-2.09
2023-03-01T04:06:54.505Z,-2.23
2023-03-01T04:09:20.735Z,-2.27
2023-03-01T04:11:46.957Z,-2.04
2023-03-01T04:14:13.215Z,-1.87
2023-03-01T04:16:39.447Z,-1.83
2023-03-01T04:19:05.688Z,-1.88
2023-03-01T04:21:31.903Z,-1.98
2023-03-01T04:23:58.133Z,-2.13
2023-03-01T04:26:24.335Z,-2.25
2023-03-01T04:28:50.544Z,-2.24
2023-03-01T04:31:17.485Z,-2.23
2023-03-01T04:33:44.330Z,-2.21
2023-03-01T04:36:10.970Z,-2.18
2023-03-01T04:38:37.623Z,-2.13
2023-03-01T04:41:07.328Z,-2.06
2023-03-01T04:43:33.574Z,-2.22
2023-03-01T04:46:03.382Z,-2.21
2023-03-01T04:48:30.171Z,-2.32
2023-03-01T04:50:56.382Z,-2.28
2023-03-01T04:53:22.603Z,-2.30
2023-03-01T04:55:48.818Z,-2.29
2023-03-01T04:58:15.052Z,-2.26
2023-03-01T05:00:41.282Z,-2.20
2023-03-01T05:03:07.493Z,-2.14
2023-03-01T05:05:34.675Z,-2.10
2023-03-01T05:08:01.571Z,-1.99
2023-03-01T05:10:28.174Z,-1.83
2023-03-01T05:12:54.447Z,-1.71
2023-03-01T05:15:20.679Z,-1.80
2023-03-01T05:17:46.890Z,-1.79
2023-03-01T05:20:13.119Z,-1.79
2023-03-01T05:22:39.314Z,-1.80
2023-03-01T05:25:05.807Z,-1.90
2023-03-01T05:27:32.030Z,-1.89
2023-03-01T05:29:58.239Z,-1.88
2023-03-01T05:32:24.486Z,-1.99
2023-03-01T05:34:50.718Z,-2.00
2023-03-01T05:37:16.949Z,-1.91
2023-03-01T05:39:43.154Z,-1.87
2023-03-01T05:42:09.881Z,-1.90
2023-03-01T05:44:36.130Z,-1.87
2023-03-01T05:47:02.388Z,-1.89
2023-03-01T05:49:28.608Z,-1.87
2023-03-01T05:51:54.816Z,-1.88
2023-03-01T05:54:21.435Z,-1.92
2023-03-01T05:56:47.636Z,-2.09
2023-03-01T05:59:13.881Z,-2.19
2023-03-01T06:01:40.093Z,-2.10
2023-03-01T06:04:06.498Z,-2.00
2023-03-01T06:06:36.308Z,-1.94
2023-03-01T06:09:02.525Z,-1.91
2023-03-01T06:11:28.730Z,-1.96
2023-03-01T06:13:54.969Z,-1.88
2023-03-01T06:16:21.178Z,-1.83
2023-03-01T06:18:47.399Z,-1.78
2023-03-01T06:21:13.612Z,-1.69
2023-03-01T06:23:39.828Z,-1.63
2023-03-01T06:26:06.685Z,-1.79
2023-03-01T06:28:32.913Z,-1.73
2023-03-01T06:30:59.154Z,-1.73
2023-03-01T06:33:25.439Z,-1.64
2023-03-01T06:35:51.946Z,-1.72
2023-03-01T06:38:18.229Z,-1.77
2023-03-01T06:40:44.465Z,-1.66
2023-03-01T06:43:10.681Z,-1.53
2023-03-01T06:45:37.271Z,-1.42
2023-03-01T06:48:07.003Z,-1.48
2023-03-01T06:50:33.339Z,-1.42
2023-03-01T06:52:59.578Z,-1.29
2023-03-01T06:55:25.808Z,-1.15
2023-03-01T06:57:55.713Z,-0.99
2023-03-01T07:00:22.077Z,-0.89
2023-03-01T07:02:48.425Z,-0.68
2023-03-01T07:05:14.721Z,-0.63
2023-03-01T07:07:40.941Z,-0.41
2023-03-01T07:10:07.539Z,-0.19
2023-03-01T07:12:33.790Z,0.04
2023-03-01T07:15:00.029Z,0.28
2023-03-01T07:17:26.229Z,0.52
2023-03-01T07:19:52.448Z,0.70
2023-03-01T07:22:18.688Z,1.01
2023-03-01T07:24:44.910Z,1.32
2023-03-01T07:27:11.140Z,1.55
2023-03-01T07:29:37.363Z,1.84
2023-03-01T07:32:04.240Z,2.03
2023-03-01T07:34:30.549Z,2.36
2023-03-01T07:36:56.755Z,2.60
2023-03-01T07:39:22.970Z,2.63
2023-03-01T07:41:49.318Z,2.66
2023-03-01T07:44:15.587Z,2.65
2023-03-01T07:46:41.788Z,2.75
2023-03-01T07:49:10.957Z,2.78
2023-03-01T07:51:37.205Z,2.84
2023-03-01T07:54:03.428Z,2.88
2023-03-01T07:56:30.487Z,2.47
2023-03-01T07:58:56.981Z,2.29
2023-03-01T08:01:23.213Z,2.28
2023-03-01T08:03:49.423Z,2.13
2023-03-01T08:06:16.088Z,2.15
2023-03-01T08:08:42.311Z,2.48
2023-03-01T08:11:08.957Z,2.75
2023-03-01T08:13:35.167Z,3.16
2023-03-01T08:16:02.168Z,3.47
2023-03-01T08:18:28.378Z,3.63
2023-03-01T08:20:54.764Z,3.77
2023-03-01T08:23:21.241Z,3.83
2023-03-01T08:25:47.802Z,4.10
2023-03-01T08:28:14.014Z,4.18
2023-03-01T08:30:40.235Z,4.14
2023-03-01T08:33:06.480Z,4.24
2023-03-01T08:35:32.781Z,4.13
2023-03-01T08:37:59.017Z,3.94
2023-03-01T08:40:25.292Z,3.92
2023-03-01T08:42:51.513Z,4.09
2023-03-01T08:45:17.730Z,4.12
2023-03-01T08:47:44.014Z,4.25
2023-03-01T08:50:10.482Z,4.35
2023-03-01T08:52:36.683Z,4.52
2023-03-01T08:55:02.912Z,4.58
2023-03-01T08:57:29.142Z,4.80
2023-03-01T08:59:55.368Z,5.03
2023-03-01T09:02:21.634Z,4.90
2023-03-01T09:04:48.025Z,4.98
2023-03-01T09:07:14.224Z,4.92
2023-03-01T09:09:40.448Z,4.83
2023-03-01T09:12:06.654Z,4.85
2023-03-01T09:14:32.880Z,5.00
2023-03-01T09:16:59.154Z,5.01
2023-03-01T09:19:27.317Z,5.07
2023-03-01T09:21:53.678Z,5.22
2023-03-01T09:24:20.938Z,5.28
2023-03-01T09:26:47.799Z,5.07
2023-03-01T09:29:14.984Z,5.27
2023-03-01T09:31:41.248Z,5.48
2023-03-01T09:34:07.464Z,5.62
2023-03-01T09:36:33.988Z,5.61
2023-03-01T09:39:00.595Z,5.82
2023-03-01T09:41:45.576Z,6.00
2023-03-01T09:44:17.142Z,6.12
2023-03-01T09:46:43.983Z,6.14
2023-03-01T09:49:12.048Z,5.94
2023-03-01T09:51:38.271Z,5.83
2023-03-01T09:54:04.934Z,5.50
2023-03-01T09:56:35.626Z,5.57
2023-03-01T09:59:22.277Z,5.69
2023-03-01T10:01:57.882Z,5.62
2023-03-01T10:04:39.337Z,5.59
2023-03-01T10:07:14.288Z,5.55
2023-03-01T10:09:43.938Z,5.56
2023-03-01T10:12:11.347Z,5.49
2023-03-01T10:14:39.320Z,5.66
2023-03-01T10:17:06.412Z,5.74
2023-03-01T10:19:39.527Z,5.66
2023-03-01T10:22:14.768Z,5.81
2023-03-01T10:24:40.966Z,5.56
2023-03-01T10:27:13.229Z,5.53
2023-03-01T10:29:50.172Z,5.29
2023-03-01T10:32:16.428Z,5.35
2023-03-01T10:34:42.650Z,5.46
2023-03-01T10:37:15.831Z,5.28
2023-03-01T10:40:00.980Z,5.07
2023-03-01T10:42:28.492Z,4.93
2023-03-01T10:44:54.759Z,4.90
2023-03-01T10:47:22.060Z,4.83
2023-03-01T10:49:58.873Z,4.79
2023-03-01T10:52:29.481Z,4.86
2023-03-01T10:55:18.771Z,4.94
2023-03-01T10:57:44.991Z,4.73
2023-03-01T11:00:17.745Z,4.83
2023-03-01T11:02:44.060Z,4.75
2023-03-01T11:05:13.379Z,4.61
2023-03-01T11:07:55.193Z,4.49
2023-03-01T11:10:22.379Z,4.48
2023-03-01T11:12:48.606Z,4.38
2023-03-01T11:15:20.851Z,4.36
2023-03-01T11:17:54.498Z,4.50
2023-03-01T11:20:33.207Z,4.54
2023-03-01T11:23:00.854Z,4.60
2023-03-01T11:25:27.828Z,4.82
2023-03-01T11:27:54.173Z,4.85
2023-03-01T11:30:32.758Z,4.91
2023-03-01T11:33:04.873Z,4.93
2023-03-01T11:35:31.124Z,4.99
2023-03-01T11:38:03.783Z,5.24
2023-03-01T11:40:50.517Z,5.24
2023-03-01T11:43:35.514Z,5.40
2023-03-01T11:46:01.676Z,5.25
2023-03-01T11:48:49.391Z,5.24
2023-03-01T11:51:21.704Z,4.92
2023-03-01T11:53:57.652Z,5.08
2023-03-01T11:56:26.903Z,5.07
2023-03-01T11:58:53.122Z,4.91
2023-03-01T12:01:34.778Z,5.18
2023-03-01T12:04:12.648Z,5.10
2023-03-01T12:06:38.820Z,5.16
2023-03-01T12:09:11.985Z,5.18
2023-03-01T12:11:41.320Z,5.20
2023-03-01T12:14:18.290Z,5.22
2023-03-01T12:16:53.721Z,5.13
2023-03-01T12:19:32.468Z,5.16
2023-03-01T12:22:16.005Z,5.02
2023-03-01T12:24:52.094Z,5.18
2023-03-01T12:27:36.631Z,5.34
2023-03-01T12:30:22.161Z,5.19
2023-03-01T12:32:53.500Z,5.19
2023-03-01T12:35:23.213Z,5.09
2023-03-01T12:37:52.509Z,5.27
2023-03-01T12:40:36.707Z,5.10
2023-03-01T12:43:21.887Z,5.11
2023-03-01T12:46:06.776Z,5.29
2023-03-01T12:48:44.178Z,5.18
2023-03-01T12:51:11.898Z,5.07
2023-03-01T12:53:56.487Z,5.05
2023-03-01T12:56:23.457Z,5.11
2023-03-01T12:58:58.789Z,5.25
2023-03-01T13:01:33.853Z,5.37
2023-03-01T13:04:00.056Z,5.61
2023-03-01T13:06:38.132Z,5.67
2023-03-01T13:09:17.597Z,5.53
2023-03-01T13:11:43.826Z,5.61
2023-03-01T13:14:22.181Z,5.43
2023-03-01T13:16:48.480Z,5.12
2023-03-01T13:19:16.109Z,4.81
2023-03-01T13:21:42.349Z,4.58
2023-03-01T13:24:38.162Z,4.67
2023-03-01T13:27:07.122Z,4.74
2023-03-01T13:29:51.913Z,4.78
2023-03-01T13:32:41.605Z,4.56
2023-03-01T13:35:15.618Z,4.63
2023-03-01T13:37:41.829Z,4.36
2023-03-01T13:40:28.010Z,4.35
2023-03-01T13:43:04.832Z,4.43
2023-03-01T13:45:33.995Z,4.35
2023-03-01T13:48:02.026Z,4.40
2023-03-01T13:50:29.330Z,4.43
2023-03-01T13:52:56.340Z,4.44
2023-03-01T13:55:24.788Z,4.36
2023-03-01T13:57:52.063Z,4.37
2023-03-01T14:00:32.149Z,4.21
2023-03-01T14:03:06.435Z,4.07
2023-03-01T14:05:33.170Z,4.00
2023-03-01T14:07:59.409Z,3.86
2023-03-01T14:10:31.628Z,3.92
2023-03-01T14:13:16.698Z,3.83
2023-03-01T14:15:50.296Z,3.80
2023-03-01T14:18:25.241Z,3.94
2023-03-01T14:20:51.464Z,4.03
2023-03-01T14:23:21.380Z,4.06
2023-03-01T14:25:48.514Z,3.98
2023-03-01T14:28:21.602Z,3.93
2023-03-01T14:30:48.589Z,3.93
2023-03-01T14:33:34.323Z,3.93
2023-03-01T14:36:00.577Z,3.93
2023-03-01T14:38:43.083Z,3.91
2023-03-01T14:41:10.172Z,3.90
2023-03-01T14:43:36.385Z,3.83
2023-03-01T14:46:02.630Z,3.91
2023-03-01T14:48:29.180Z,3.91
2023-03-01T14:50:55.425Z,3.82
2023-03-01T14:53:22.986Z,3.85
2023-03-01T14:55:49.850Z,3.86
2023-03-01T14:58:16.738Z,3.86
2023-03-01T15:01:01.758Z,3.80
2023-03-01T15:03:35.294Z,3.75
2023-03-01T15:06:01.836Z,3.59
2023-03-01T15:08:28.034Z,3.55
2023-03-01T15:11:02.002Z,3.39
2023-03-01T15:13:32.597Z,3.32
2023-03-01T15:16:17.945Z,3.31
2023-03-01T15:18:48.011Z,3.32
2023-03-01T15:21:17.168Z,3.21
2023-03-01T15:23:48.033Z,3.17
2023-03-01T15:26:28.819Z,3.14
2023-03-01T15:28:55.772Z,3.10
2023-03-01T15:31:22.646Z,3.11
2023-03-01T15:33:48.894Z,3.04
2023-03-01T15:36:32.064Z,2.99
2023-03-01T15:38:58.762Z,2.97
2023-03-01T15:41:28.670Z,2.95
2023-03-01T15:43:56.647Z,2.98
2023-03-01T15:46:27.208Z,2.90
2023-03-01T15:48:54.950Z,2.88
2023-03-01T15:51:23.144Z,2.89
2023-03-01T15:53:54.498Z,2.88
2023-03-01T15:56:21.018Z,2.88
2023-03-01T15:58:47.220Z,2.86
2023-03-01T16:01:16.889Z,2.86
2023-03-01T16:03:43.195Z,2.90
2023-03-01T16:06:10.087Z,2.87
2023-03-01T16:08:36.292Z,2.92
2023-03-01T16:11:02.907Z,2.91
2023-03-01T16:13:29.523Z,2.87
2023-03-01T16:15:55.801Z,2.80
2023-03-01T16:18:22.036Z,2.80
2023-03-01T16:20:48.247Z,2.85
2023-03-01T16:23:14.463Z,2.85
2023-03-01T16:25:40.665Z,2.85
2023-03-01T16:28:06.876Z,2.81
2023-03-01T16:30:33.882Z,2.80
2023-03-01T16:33:01.266Z,2.80
2023-03-01T16:35:27.618Z,2.74
2023-03-01T16:37:53.863Z,2.69
2023-03-01T16:40:24.189Z,2.67
2023-03-01T16:42:50.425Z,2.63
2023-03-01T16:45:25.279Z,2.65
2023-03-01T16:47:54.427Z,2.67
2023-03-01T16:50:21.804Z,2.60
2023-03-01T16:52:48.022Z,2.60
2023-03-01T16:55:14.240Z,2.65
2023-03-01T16:57:40.460Z,2.57
2023-03-01T17:00:07.002Z,2.53
2023-03-01T17:02:33.202Z,2.47
2023-03-01T17:04:59.422Z,2.51
2023-03-01T17:07:25.624Z,2.51
2023-03-01T17:09:51.888Z,2.57
2023-03-01T17:12:18.101Z,2.50
2023-03-01T17:14:44.315Z,2.45
2023-03-01T17:17:10.671Z,2.40
2023-03-01T17:19:36.974Z,2.42
2023-03-01T17:22:03.507Z,2.42
2023-03-01T17:24:32.750Z,2.43
2023-03-01T17:26:58.953Z,2.28
2023-03-01T17:29:25.151Z,2.35
2023-03-01T17:31:51.468Z,2.27
2023-03-01T17:34:17.726Z,2.16
2023-03-01T17:36:43.957Z,2.23
2023-03-01T17:39:10.620Z,2.16
2023-03-01T17:41:36.841Z,2.12
2023-03-01T17:44:03.059Z,2.08
2023-03-01T17:46:29.277Z,2.15
2023-03-01T17:48:55.474Z,2.06
2023-03-01T17:51:21.683Z,2.00
2023-03-01T17:53:47.871Z,1.95
2023-03-01T17:56:14.072Z,1.96
2023-03-01T17:58:40.277Z,1.95
2023-03-01T18:01:07.268Z,1.94
2023-03-01T18:03:33.465Z,1.96
2023-03-01T18:05:59.679Z,2.01
2023-03-01T18:08:25.892Z,2.07
2023-03-01T18:10:58.015Z,2.01
2023-03-01T18:13:24.222Z,1.90
2023-03-01T18:15:50.428Z,1.88
2023-03-01T18:18:16.628Z,1.92
2023-03-01T18:20:42.841Z,1.84
2023-03-01T18:23:09.039Z,1.80
2023-03-01T18:25:37.716Z,1.87
2023-03-01T18:28:03.918Z,1.77
2023-03-01T18:30:30.140Z,1.69
2023-03-01T18:32:56.492Z,1.68
2023-03-01T18:35:23.222Z,1.67
2023-03-01T18:37:49.440Z,1.58
2023-03-01T18:40:15.809Z,1.55
2023-03-01T18:42:42.022Z,1.48
2023-03-01T18:45:08.485Z,1.45
2023-03-01T18:47:34.682Z,1.42
2023-03-01T18:50:00.883Z,1.57
2023-03-01T18:52:27.095Z,1.66
2023-03-01T18:54:53.297Z,1.46
2023-03-01T18:57:19.512Z,1.42
2023-03-01T18:59:45.718Z,1.35
2023-03-01T19:02:12.208Z,1.45
2023-03-01T19:04:38.423Z,1.57
2023-03-01T19:07:04.644Z,1.55
2023-03-01T19:09:30.845Z,1.57
2023-03-01T19:11:57.050Z,1.51
2023-03-01T19:14:23.260Z,1.33
2023-03-01T19:16:49.466Z,1.26
2023-03-01T19:19:15.670Z,1.42
2023-03-01T19:21:41.878Z,1.35
2023-03-01T19:24:08.104Z,1.30
2023-03-01T19:26:34.724Z,1.17
2023-03-01T19:29:01.089Z,1.11
2023-03-01T19:31:27.794Z,1.16
2023-03-01T19:33:59.424Z,1.23
2023-03-01T19:36:31.800Z,1.16
2023-03-01T19:39:04.838Z,0.99
2023-03-01T19:41:31.048Z,0.89
2023-03-01T19:43:57.328Z,1.04
2023-03-01T19:46:23.677Z,1.12
2023-03-01T19:48:51.535Z,1.07
2023-03-01T19:51:18.058Z,1.17
2023-03-01T19:53:44.260Z,1.05
2023-03-01T19:56:10.538Z,1.01
2023-03-01T19:58:37.527Z,1.00
2023-03-01T20:01:03.772Z,1.01
2023-03-01T20:03:31.113Z,1.00
2023-03-01T20:05:57.373Z,0.99
2023-03-01T20:08:23.800Z,1.00
2023-03-01T20:10:50.024Z,0.98
2023-03-01T20:13:16.278Z,1.00
2023-03-01T20:15:42.716Z,0.96
2023-03-01T20:18:09.309Z,0.97
2023-03-01T20:20:35.512Z,0.96
2023-03-01T20:23:01.721Z,0.94
2023-03-01T20:25:27.948Z,1.06
2023-03-01T20:27:54.170Z,1.03
2023-03-01T20:30:20.373Z,1.05
2023-03-01T20:32:46.579Z,0.93
2023-03-01T20:35:12.778Z,1.10
2023-03-01T20:37:38.993Z,1.05
2023-03-01T20:40:05.438Z,1.10
2023-03-01T20:42:31.670Z,1.22
2023-03-01T20:44:57.901Z,1.09
2023-03-01T20:47:24.174Z,1.10
2023-03-01T20:49:50.620Z,1.20
2023-03-01T20:52:16.878Z,1.26
2023-03-01T20:54:43.096Z,1.38
2023-03-01T20:57:09.323Z,1.04
2023-03-01T20:59:35.536Z,0.93
2023-03-01T21:02:01.744Z,0.81
2023-03-01T21:04:27.938Z,0.74
2023-03-01T21:06:54.159Z,0.76
2023-03-01T21:09:20.366Z,0.76
2023-03-01T21:11:48.663Z,0.78
2023-03-01T21:14:14.868Z,0.73
2023-03-01T21:16:42.054Z,0.68
2023-03-01T21:19:08.328Z,0.66
2023-03-01T21:21:34.557Z,0.61
2023-03-01T21:24:00.787Z,0.67
2023-03-01T21:26:27.029Z,0.65
2023-03-01T21:28:54.546Z,0.63
2023-03-01T21:31:22.615Z,0.57
2023-03-01T21:33:52.487Z,0.50
2023-03-01T21:36:18.821Z,0.50
2023-03-01T21:38:45.907Z,0.51
2023-03-01T21:41:13.096Z,0.53
2023-03-01T21:43:39.430Z,0.47
2023-03-01T21:46:06.651Z,0.50
2023-03-01T21:48:33.714Z,0.52
2023-03-01T21:51:01.052Z,0.55
2023-03-01T21:53:28.361Z,0.57
2023-03-01T21:55:54.567Z,0.54
2023-03-01T21:58:20.820Z,0.55
2023-03-01T22:00:47.165Z,0.61
2023-03-01T22:03:13.438Z,0.63
2023-03-01T22:05:39.680Z,0.63
2023-03-01T22:08:06.001Z,0.67
2023-03-01T22:10:32.203Z,0.68
2023-03-01T22:12:58.420Z,0.69
2023-03-01T22:15:25.028Z,0.71
2023-03-01T22:17:51.265Z,0.80
2023-03-01T22:20:17.481Z,0.71
2023-03-01T22:22:43.708Z,0.68
2023-03-01T22:25:10.511Z,0.67
2023-03-01T22:27:36.775Z,0.60
2023-03-01T22:30:06.626Z,0.57
2023-03-01T22:32:32.859Z,0.56
2023-03-01T22:34:59.075Z,0.48
2023-03-01T22:37:25.278Z,0.41
2023-03-01T22:39:51.474Z,0.39
2023-03-01T22:42:17.680Z,0.41
2023-03-01T22:44:43.888Z,0.40
2023-03-01T22:47:10.152Z,0.47
2023-03-01T22:49:36.471Z,0.43
2023-03-01T22:52:02.759Z,0.43
2023-03-01T22:54:28.963Z,0.40
2023-03-01T22:56:55.397Z,0.41
2023-03-01T22:59:21.664Z,0.41
2023-03-01T23:01:48.468Z,0.51
2023-03-01T23:04:15.397Z,0.49
2023-03-01T23:06:41.595Z,0.36
2023-03-01T23:09:07.819Z,0.32
2023-03-01T23:11:34.039Z,0.44
2023-03-01T23:14:00.248Z,0.59
2023-03-01T23:16:26.839Z,0.50
2023-03-01T23:18:56.284Z,0.60
2023-03-01T23:21:22.530Z,0.32
2023-03-01T23:23:48.731Z,0.40
2023-03-01T23:26:14.980Z,0.46
2023-03-01T23:28:41.306Z,0.51
2023-03-01T23:31:08.495Z,0.46
2023-03-01T23:33:34.720Z,0.43
2023-03-01T23:36:01.649Z,0.47
2023-03-01T23:38:28.092Z,0.53
2023-03-01T23:40:54.297Z,0.62
2023-03-01T23:43:20.513Z,0.50
2023-03-01T23:45:46.736Z,0.65
2023-03-01T23:48:12.991Z,0.57
2023-03-01T23:50:39.638Z,0.47
2023-03-01T23:53:05.845Z,0.56
2023-03-01T23:55:32.056Z,0.41
2023-03-01T23:57:58.272Z,0.27
